Melilla, Spain
Current Conditions -  °F | °C
As of 8:30 PM on Monday 20 Oct 2014 (Local Time) from GEML Reporting Station
Clear Clear  
Wind Chill: 75°   Ceiling: Unl
Heat Index: 75°   Visibility: 6mi
Dew Point: 63°   Wind: 8mph
Humidity: 65%   Direction: 250°WSW
Pressure: 30.09"   Gusts: NA
Location:  35.29°N, 2.94°W
Report Text: GEML 201830Z 25007KT 200V280 CAVOK 24/17 Q1019
Loading
Personal Weather Stations






























Interactive Weather Map
Tropical Storm Tracking
New forecast layout! Learn more

10-Day Weather Forecast

Advertisements
Track Severe Weather on mobile